ADDS METAR Data INFO
IDs: Format: Raw Decoded Include TAF

Data at: 0918 UTC 13 Dec 2017

KIPJ 130905Z AUTO 28006KT 10SM CLR M01/M18 A2990 RMK AO2 T10151176
KIPJ 130845Z AUTO 26005KT 10SM CLR M02/M18 A2989 RMK AO2 T10161177
KIPJ 130825Z AUTO 27003KT 10SM CLR M02/M17 A2990 RMK AO2 T10171174
KIPJ 130805Z AUTO 27005KT 10SM CLR M01/M17 A2989 RMK AO2 T10151173
KIPJ 130745Z AUTO 27006KT 10SM CLR M01/M17 A2988 RMK AO2 T10151170
KIPJ 130725Z AUTO 27005KT 10SM CLR M02/M16 A2988 RMK AO2 T10201164
KIPJ 130705Z AUTO 00000KT 10SM CLR M02/M17 A2988 RMK AO2 T10201171
KIPJ 130645Z AUTO 00000KT 10SM CLR M01/M17 A2987 RMK AO2 T10151172
KIPJ 130625Z AUTO 28005KT 10SM CLR M01/M17 A2986 RMK AO2 T10101169
KIPJ 130545Z AUTO 27006KT 10SM CLR M01/M17 A2986 RMK AO2 T10061174
KIPJ 130525Z AUTO 27005KT 10SM CLR M01/M17 A2985 RMK AO2 T10061169
KIPJ 130505Z AUTO 27006KT 10SM CLR M01/M17 A2986 RMK AO2 T10061167
KIPJ 130445Z AUTO 28005KT 10SM CLR 00/M17 A2986 RMK AO2 T10021167
KIPJ 130425Z AUTO 28004KT 10SM CLR 00/M16 A2985 RMK AO2 T00001162
KIPJ 130405Z AUTO 31003KT 10SM CLR 00/M15 A2985 RMK AO2 T00011151
KIPJ 130345Z AUTO 28006KT 10SM CLR 00/M13 A2984 RMK AO2 T00001134
KIPJ 130325Z AUTO 28005KT 10SM CLR 00/M12 A2984 RMK AO2 T00021119
KIPJ 130305Z AUTO 27005KT 10SM CLR 00/M10 A2983 RMK AO2 T00021104
KIPJ 130245Z AUTO 27005KT 10SM CLR 00/M10 A2983 RMK AO2 T00031098
KIPJ 130225Z AUTO 28003KT 10SM CLR 01/M10 A2983 RMK AO2 T00061101
KIPJ 130205Z AUTO 29003KT 10SM CLR 01/M10 A2983 RMK AO2 T00101101
KIPJ 130145Z AUTO 30003KT 10SM CLR 01/M10 A2983 RMK AO2 T00091101
KIPJ 130125Z AUTO 00000KT 10SM SCT065 01/M10 A2982 RMK AO2 T00111100
KIPJ 130105Z AUTO 00000KT 10SM SCT065 02/M10 A2982 RMK AO2 T00201102
KIPJ 130045Z AUTO 32003KT 10SM CLR 02/M10 A2981 RMK AO2 T00231098
KIPJ 130025Z AUTO 32003KT 10SM CLR 03/M09 A2981 RMK AO2 T00261090
KIPJ 130005Z AUTO 31004KT 10SM CLR 03/M08 A2980 RMK AO2 T00301079
KIPJ 122345Z AUTO 32006G15KT 10SM CLR 04/M09 A2980 RMK AO2 T00351086
KIPJ 122325Z AUTO 31006G15KT 10SM CLR 04/M09 A2979 RMK AO2 T00401086
KIPJ 122305Z AUTO 31007G19KT 10SM CLR 05/M08 A2978 RMK AO2 T00451080
KIPJ 122245Z AUTO 31008G15KT 280V350 10SM CLR 05/M08 A2977 RMK AO2 T00501082
KIPJ 122225Z AUTO 30008G15KT 270V330 10SM CLR 06/M09 A2976 RMK AO2 T00551086
KIPJ 122205Z AUTO 30006G19KT 10SM CLR 07/M08 A2974 RMK AO2 T00651079
KIPJ 122145Z AUTO 30012G19KT 280V340 10SM CLR 08/M07 A2972 RMK AO2 T00761067
KIPJ 122125Z AUTO 30009G17KT 260V340 10SM SCT065 09/M07 A2971 RMK AO2 T00861069
KIPJ 122105Z AUTO 29007G18KT 10SM SCT065 10/M05 A2970 RMK AO2 T00951053
KIPJ 122045Z AUTO 29009G16KT 10SM CLR 10/M06 A2968 RMK AO2 T01001060
KIPJ 122025Z AUTO 30006G15KT 10SM CLR 10/M05 A2968 RMK AO2 T00981050
KIPJ 122005Z AUTO 31006KT 10SM SCT060 10/M04 A2968 RMK AO2 T01011041
KIPJ 121945Z AUTO 29007G17KT 10SM SCT060 10/M04 A2968 RMK AO2 T01031043
KIPJ 121925Z AUTO 30006G16KT 10SM SCT060 10/M05 A2968 RMK AO2 T01041048
KIPJ 121905Z AUTO 29007G16KT 250V330 10SM SCT060 11/M04 A2968 RMK AO2 T01091044
KIPJ 121845Z AUTO 29008G15KT 260V320 10SM SCT060 11/M05 A2969 RMK AO2 T01091047
KIPJ 121825Z AUTO 29008G17KT 10SM SCT049 11/M04 A2970 RMK AO2 T01051038
KIPJ 121805Z AUTO 32011G17KT 290V350 10SM BKN049 10/M03 A2970 RMK AO2 T00961034
KIPJ 121745Z AUTO 26011G17KT 240V300 10SM OVC049 10/M03 A2971 RMK AO2 T00971030
KIPJ 121725Z AUTO 29008G15KT 10SM BKN049 11/M03 A2971 RMK AO2 T01111026
KIPJ 121705Z AUTO 30009G17KT 250V350 10SM BKN049 11/M02 A2971 RMK AO2 T01071024
KIPJ 121645Z AUTO 27015G21KT 10SM SCT049 10/M03 A2972 RMK AO2 T01041026
KIPJ 121625Z AUTO 30010G17KT 10SM CLR 11/M02 A2972 RMK AO2 T01051021
KIPJ 121605Z AUTO 30011G19KT 230V320 10SM CLR 10/M02 A2972 RMK AO2 T01011017
KIPJ 121545Z AUTO 29009G18KT 250V320 10SM CLR 09/M02 A2973 RMK AO2 T00931016
KIPJ 121525Z AUTO 29007KT 260V330 10SM CLR 09/M01 A2972 RMK AO2 T00931010
KIPJ 121505Z AUTO 28004KT 10SM CLR 08/00 A2972 RMK AO2 T00841001
KIPJ 121445Z AUTO 27004KT 10SM CLR 07/00 A2972 RMK AO2 T00690004
KIPJ 121425Z AUTO 27003KT 10SM CLR 06/01 A2972 RMK AO2 T00590006
KIPJ 121405Z AUTO 26004KT 10SM CLR 05/02 A2971 RMK AO2 T00490019
KIPJ 121345Z AUTO 00000KT 10SM CLR 04/01 A2972 RMK AO2 T00410012
KIPJ 121325Z AUTO 00000KT 10SM CLR 03/01 A2972 RMK AO2 T00260005
KIPJ 121305Z AUTO 00000KT 10SM CLR 02/00 A2973 RMK AO2 T00161003
KIPJ 121245Z AUTO 00000KT 10SM CLR 00/00 A2973 RMK AO2 T00041005
KIPJ 121225Z AUTO 22004KT 10SM CLR M01/M01 A2974 RMK AO2 T10061007
KIPJ 121205Z AUTO 00000KT 10SM CLR M01/M01 A2974 RMK AO2 T10071010
KIPJ 121145Z AUTO 00000KT 10SM CLR M01/M01 A2974 RMK AO2 T10071010
KIPJ 121125Z AUTO 00000KT 10SM CLR 00/M01 A2974 RMK AO2 T10051007
KIPJ 121105Z AUTO 00000KT 10SM CLR 00/M01 A2974 RMK AO2 T10031006
KIPJ 121025Z AUTO 00000KT 10SM CLR 00/00 A2974 RMK AO2 T00001001
KIPJ 121005Z AUTO 00000KT 10SM CLR 00/M01 A2974 RMK AO2 T10041011
KIPJ 120945Z AUTO 00000KT 10SM CLR 00/M01 A2974 RMK AO2 T00001008
KIPJ 120925Z AUTO 00000KT 10SM CLR 00/00 A2975 RMK AO2 T00001002
KIPJ 120905Z AUTO 00000KT 10SM CLR 00/M01 A2975 RMK AO2 T00001006
KIPJ 120845Z AUTO 00000KT 10SM CLR 01/00 A2977 RMK AO2 T00051003
KIPJ 120825Z AUTO 00000KT 10SM CLR 01/00 A2977 RMK AO2 T00051003
KIPJ 120805Z AUTO 00000KT 10SM CLR 01/00 A2978 RMK AO2 T00071004
KIPJ 120745Z AUTO 00000KT 10SM CLR 02/00 A2978 RMK AO2 T00201002
KIPJ 120725Z AUTO 00000KT 10SM CLR 02/00 A2979 RMK AO2 T00160000
KIPJ 120705Z AUTO 00000KT 10SM CLR 02/00 A2980 RMK AO2 T00231004
KIPJ 120645Z AUTO 24004KT 10SM CLR 02/00 A2980 RMK AO2 T00201002
KIPJ 120625Z AUTO 00000KT 10SM CLR 00/00 A2981 RMK AO2 T00021004
KIPJ 120525Z AUTO 00000KT 10SM CLR 00/M01 A2985 RMK AO2 T10041012
KIPJ 120505Z AUTO 00000KT 10SM CLR 00/M01 A2985 RMK AO2 T10011012
KIPJ 120445Z AUTO 00000KT 10SM CLR 00/M01 A2987 RMK AO2 T00011009
KIPJ 120425Z AUTO 00000KT 10SM CLR 03/00 A2988 RMK AO2 T00291001
KIPJ 120405Z AUTO 00000KT 10SM CLR 01/M01 A2989 RMK AO2 T00131014
KIPJ 120325Z AUTO 19003KT 10SM CLR 02/M01 A2990 RMK AO2 T00161008
KIPJ 120305Z AUTO 00000KT 10SM CLR 01/M01 A2991 RMK AO2 T00131006
KIPJ 120245Z AUTO 00000KT 10SM CLR 04/M01 A2992 RMK AO2 T00381007
KIPJ 120225Z AUTO 00000KT 10SM CLR 02/M01 A2993 RMK AO2 T00181012
KIPJ 120205Z AUTO 00000KT 10SM CLR 06/M01 A2993 RMK AO2 T00551006
KIPJ 120145Z AUTO 20003KT 10SM CLR 05/00 A2993 RMK AO2 T00511005
KIPJ 120125Z AUTO 00000KT 10SM CLR 03/M01 A2995 RMK AO2 T00251008
KIPJ 120105Z AUTO 00000KT 10SM CLR 02/00 A2995 RMK AO2 T00221004
KIPJ 120045Z AUTO 00000KT 10SM CLR 05/M01 A2995 RMK AO2 T00471013
KIPJ 120025Z AUTO 00000KT 10SM CLR 05/00 A2995 RMK AO2 T00491005
KIPJ 120005Z AUTO 00000KT 10SM CLR 05/M01 A2996 RMK AO2 T00481012
KIPJ 112345Z AUTO 20003KT 10SM CLR 07/M01 A2998 RMK AO2 T00671012
KIPJ 112325Z AUTO 00000KT 10SM CLR 08/M02 A2997 RMK AO2 T00801016
KIPJ 112305Z AUTO 00000KT 10SM CLR 09/M01 A2998 RMK AO2 T00851015
KIPJ 112245Z AUTO 00000KT 10SM CLR 09/M02 A2998 RMK AO2 T00891016
KIPJ 112225Z AUTO 00000KT 10SM CLR 10/M02 A2998 RMK AO2 T00971020
KIPJ 112205Z AUTO 00000KT 10SM CLR 10/M02 A2998 RMK AO2 T01031025
KIPJ 112145Z AUTO 22003KT 10SM CLR 11/M02 A2999 RMK AO2 T01111022
KIPJ 112125Z AUTO 21004KT 10SM CLR 12/M02 A2998 RMK AO2 T01201024